Time;durP1;ratioP1;P1;durP2;ratioP2;P2;SDS_P1;SDS_P2;PMS_P1;PMS_P2;Temp;Humidity;BMP_temperature;BMP_pressure;BME280_temperature;BME280_humidity;BME280_pressure;Samples;Min_cycle;Max_cycle;Signal;HPM_P1;HPM_P2
2022/04/18 00:00:19;;;;;;;5.05;3.30;;;;;;;;;;5053244;28;20053;-58
2022/04/18 00:03:06;;;;;;;3.40;2.40;;;;;;;;;;5053299;28;20055;-58
2022/04/18 00:05:51;;;;;;;3.30;2.00;;;;;;;;;;5053573;28;20049;-58
2022/04/18 00:08:36;;;;;;;4.32;2.83;;;;;;;;;;5053999;28;20056;-58
2022/04/18 00:11:20;;;;;;;4.05;2.30;;;;;;;;;;5052863;28;20079;-58
2022/04/18 00:14:05;;;;;;;4.53;2.92;;;;;;;;;;5053974;28;20049;-58
2022/04/18 00:16:49;;;;;;;4.22;2.47;;;;;;;;;;5053937;28;20044;-59
2022/04/18 00:19:37;;;;;;;4.68;3.63;;;;;;;;;;5052693;28;20051;-58
2022/04/18 00:22:23;;;;;;;6.55;4.82;;;;;;;;;;5053868;28;20040;-58
2022/04/18 00:25:07;;;;;;;3.78;2.85;;;;;;;;;;5052483;28;20065;-58
2022/04/18 00:27:52;;;;;;;8.98;5.50;;;;;;;;;;5053645;28;20045;-57
2022/04/18 00:30:37;;;;;;;8.18;5.22;;;;;;;;;;5052617;28;20045;-57
2022/04/18 00:33:22;;;;;;;9.40;5.82;;;;;;;;;;5052591;28;20049;-57
2022/04/18 00:36:07;;;;;;;3.63;2.33;;;;;;;;;;5066472;28;20048;-57
2022/04/18 00:38:51;;;;;;;6.65;4.57;;;;;;;;;;5053386;28;20045;-57
2022/04/18 00:41:35;;;;;;;6.28;3.30;;;;;;;;;;5052445;28;20044;-58
2022/04/18 00:44:20;;;;;;;5.18;4.47;;;;;;;;;;5052393;28;20037;-58
2022/04/18 00:47:05;;;;;;;5.70;4.13;;;;;;;;;;5053444;28;20406;-57
2022/04/18 00:49:50;;;;;;;6.25;4.50;;;;;;;;;;5053168;28;20405;-58
2022/04/18 00:52:37;;;;;;;5.68;3.10;;;;;;;;;;5052168;28;20128;-58
2022/04/18 00:55:23;;;;;;;4.80;2.90;;;;;;;;;;5053149;28;20051;-57
2022/04/18 00:58:09;;;;;;;4.10;3.67;;;;;;;;;;5066105;28;20045;-58
2022/04/18 01:00:54;;;;;;;6.00;3.58;;;;;;;;;;5052971;28;20064;-58
2022/04/18 01:03:38;;;;;;;5.32;3.78;;;;;;;;;;5037948;28;20033;-56
2022/04/18 01:06:23;;;;;;;8.15;4.05;;;;;;;;;;5052952;28;20041;-56
2022/04/18 01:09:08;;;;;;;6.30;3.40;;;;;;;;;;5037485;28;20404;-57
2022/04/18 01:11:53;;;;;;;3.83;2.75;;;;;;;;;;5051778;28;20041;-56
2022/04/18 01:14:47;;;;;;;3.63;2.60;;;;;;;;;;5052637;28;20041;-58
2022/04/18 01:17:32;;;;;;;6.75;3.28;;;;;;;;;;5052446;28;20068;-57
2022/04/18 01:20:35;;;;;;;4.22;2.80;;;;;;;;;;5065981;28;20052;-57
2022/04/18 01:23:38;;;;;;;4.20;2.58;;;;;;;;;;5052719;28;20700;-57
2022/04/18 01:29:46;;;;;;;5.25;2.90;;;;;;;;;;5051430;28;20504;-57
2022/04/18 01:32:31;;;;;;;4.80;3.17;;;;;;;;;;5051630;28;20048;-58
2022/04/18 01:35:16;;;;;;;4.80;3.30;;;;;;;;;;5051718;28;20432;-57
2022/04/18 01:38:00;;;;;;;4.50;2.42;;;;;;;;;;5037449;28;20041;-58
2022/04/18 01:40:44;;;;;;;5.22;2.95;;;;;;;;;;5051109;28;20041;-57
2022/04/18 01:43:29;;;;;;;4.43;2.92;;;;;;;;;;5051499;28;20048;-56
2022/04/18 01:46:17;;;;;;;4.57;3.10;;;;;;;;;;5037433;28;20048;-57
2022/04/18 01:49:01;;;;;;;7.68;2.67;;;;;;;;;;5052110;28;20061;-60
2022/04/18 01:51:46;;;;;;;5.40;2.72;;;;;;;;;;5051091;28;20040;-57
2022/04/18 01:54:31;;;;;;;6.85;3.90;;;;;;;;;;5065441;28;20057;-57
2022/04/18 01:57:16;;;;;;;4.05;2.88;;;;;;;;;;5051010;28;20071;-57
2022/04/18 02:00:01;;;;;;;4.63;2.97;;;;;;;;;;5065182;28;20052;-58
2022/04/18 02:02:47;;;;;;;3.03;2.42;;;;;;;;;;5051037;28;20049;-57
2022/04/18 02:05:32;;;;;;;4.82;3.10;;;;;;;;;;5051846;28;20055;-58
2022/04/18 02:08:17;;;;;;;4.85;2.75;;;;;;;;;;5050993;28;20115;-58
2022/04/18 02:11:02;;;;;;;3.63;2.40;;;;;;;;;;5050969;28;20037;-58
2022/04/18 02:13:54;;;;;;;5.13;2.70;;;;;;;;;;5036814;28;20048;-58
2022/04/18 02:16:38;;;;;;;4.50;2.80;;;;;;;;;;5051891;28;20049;-58
2022/04/18 02:19:25;;;;;;;5.95;2.75;;;;;;;;;;5040245;28;20058;-58
2022/04/18 02:22:12;;;;;;;4.72;2.47;;;;;;;;;;5050273;28;20069;-56
2022/04/18 02:25:00;;;;;;;2.80;2.08;;;;;;;;;;5051717;28;20041;-59
2022/04/18 02:27:44;;;;;;;3.20;2.33;;;;;;;;;;5050929;28;20045;-58
2022/04/18 02:30:30;;;;;;;5.45;3.00;;;;;;;;;;5052035;28;20048;-57
2022/04/18 02:33:17;;;;;;;3.78;2.60;;;;;;;;;;5054917;28;20052;-58
2022/04/18 02:36:03;;;;;;;3.42;2.65;;;;;;;;;;5054659;28;20049;-57
2022/04/18 02:38:47;;;;;;;4.30;2.55;;;;;;;;;;5054720;28;20083;-58
2022/04/18 02:41:32;;;;;;;4.28;2.47;;;;;;;;;;5054537;28;20079;-57
2022/04/18 02:44:17;;;;;;;5.95;3.10;;;;;;;;;;5054609;28;20048;-57
2022/04/18 02:47:02;;;;;;;3.20;2.15;;;;;;;;;;5054650;28;20045;-57
2022/04/18 02:49:47;;;;;;;3.60;2.40;;;;;;;;;;5054427;28;20048;-57
2022/04/18 02:52:35;;;;;;;5.00;2.35;;;;;;;;;;5054344;28;20052;-57
2022/04/18 02:55:19;;;;;;;3.50;2.15;;;;;;;;;;5054395;28;20041;-57
2022/04/18 02:58:04;;;;;;;4.20;2.00;;;;;;;;;;5054182;28;20041;-58
2022/04/18 03:00:52;;;;;;;3.75;2.22;;;;;;;;;;5040945;28;20091;-57
2022/04/18 03:03:36;;;;;;;3.20;2.15;;;;;;;;;;5054296;28;20499;-58
2022/04/18 03:06:22;;;;;;;3.13;2.28;;;;;;;;;;5054132;28;20053;-56
2022/04/18 03:09:06;;;;;;;4.15;2.67;;;;;;;;;;5055176;28;20037;-57
2022/04/18 03:11:51;;;;;;;5.57;2.80;;;;;;;;;;5055445;28;20118;-58
2022/04/18 03:14:37;;;;;;;3.67;2.47;;;;;;;;;;5054049;28;20503;-58
2022/04/18 03:17:23;;;;;;;3.10;2.40;;;;;;;;;;5053525;28;20494;-56
2022/04/18 03:20:08;;;;;;;3.67;2.60;;;;;;;;;;5055016;28;20068;-57
2022/04/18 03:22:53;;;;;;;5.53;2.40;;;;;;;;;;5053884;28;20498;-57
2022/04/18 03:25:57;;;;;;;4.35;2.13;;;;;;;;;;5053825;28;20067;-58
2022/04/18 03:28:43;;;;;;;4.28;2.28;;;;;;;;;;5053674;28;20041;-58
2022/04/18 03:31:28;;;;;;;2.88;2.00;;;;;;;;;;5053778;28;20037;-58
2022/04/18 03:34:13;;;;;;;4.75;2.55;;;;;;;;;;5067945;28;20477;-57
2022/04/18 03:40:01;;;;;;;5.20;2.30;;;;;;;;;;5067982;28;20099;-56
2022/04/18 03:42:48;;;;;;;5.22;2.83;;;;;;;;;;5053084;28;20166;-56
2022/04/18 03:45:34;;;;;;;3.38;1.92;;;;;;;;;;5053372;28;20037;-58
2022/04/18 03:48:19;;;;;;;4.43;2.92;;;;;;;;;;5054203;28;20045;-57
2022/04/18 03:51:04;;;;;;;4.28;2.33;;;;;;;;;;5053286;28;20079;-57
2022/04/18 03:53:49;;;;;;;3.10;1.85;;;;;;;;;;5067436;28;20041;-56
2022/04/18 03:56:36;;;;;;;4.43;2.33;;;;;;;;;;5053230;28;20045;-57
2022/04/18 03:59:41;;;;;;;5.07;2.60;;;;;;;;;;5053201;28;20072;-58
2022/04/18 04:02:26;;;;;;;4.15;2.67;;;;;;;;;;5067357;28;20769;-56
2022/04/18 04:05:13;;;;;;;5.00;2.63;;;;;;;;;;5039341;28;20491;-59
2022/04/18 04:08:00;;;;;;;4.43;3.28;;;;;;;;;;5067279;28;20075;-58
2022/04/18 04:10:54;;;;;;;2.92;1.83;;;;;;;;;;5067230;28;20041;-58
2022/04/18 04:13:41;;;;;;;3.58;2.40;;;;;;;;;;5039338;28;20041;-56
2022/04/18 04:16:32;;;;;;;4.03;2.30;;;;;;;;;;5053266;28;20044;-57
2022/04/18 04:19:18;;;;;;;3.53;2.00;;;;;;;;;;5052599;28;20045;-57
2022/04/18 04:22:04;;;;;;;6.55;3.05;;;;;;;;;;5053067;28;20048;-57
2022/04/18 04:24:48;;;;;;;4.63;3.15;;;;;;;;;;5038650;28;20398;-57
2022/04/18 04:27:33;;;;;;;3.72;2.10;;;;;;;;;;5053815;28;20045;-57
2022/04/18 04:30:21;;;;;;;3.55;1.73;;;;;;;;;;5053229;28;20045;-58
2022/04/18 04:33:17;;;;;;;6.80;2.55;;;;;;;;;;5066631;28;20041;-58
2022/04/18 04:36:04;;;;;;;5.68;2.30;;;;;;;;;;5052457;28;20048;-58
2022/04/18 04:38:49;;;;;;;5.65;2.45;;;;;;;;;;5052433;28;20044;-58
2022/04/18 04:41:42;;;;;;;3.65;1.60;;;;;;;;;;5052511;28;20120;-57
2022/04/18 04:44:27;;;;;;;4.60;2.53;;;;;;;;;;5080618;28;20412;-58
2022/04/18 04:47:17;;;;;;;2.80;1.60;;;;;;;;;;5052348;28;20124;-54
2022/04/18 04:50:02;;;;;;;2.50;1.38;;;;;;;;;;5080272;28;20094;-57
2022/04/18 04:52:54;;;;;;;2.83;1.35;;;;;;;;;;5065647;28;20037;-58
2022/04/18 04:55:42;;;;;;;2.50;1.30;;;;;;;;;;5052219;28;20515;-58
2022/04/18 04:58:27;;;;;;;6.13;2.25;;;;;;;;;;5038056;28;20044;-58
2022/04/18 05:01:24;;;;;;;4.32;1.73;;;;;;;;;;5051953;28;20075;-57
2022/04/18 05:04:29;;;;;;;3.33;1.65;;;;;;;;;;5065838;28;20037;-57
2022/04/18 05:07:16;;;;;;;2.50;1.63;;;;;;;;;;5038123;28;20064;-57
2022/04/18 05:10:22;;;;;;;2.42;1.40;;;;;;;;;;5052072;28;20045;-58
2022/04/18 05:13:07;;;;;;;2.90;1.67;;;;;;;;;;5052093;28;20558;-57
2022/04/18 05:15:52;;;;;;;3.67;1.58;;;;;;;;;;5051712;28;20100;-58
2022/04/18 05:18:55;;;;;;;3.67;1.70;;;;;;;;;;5032067;28;20512;-57
2022/04/18 05:21:39;;;;;;;3.20;1.77;;;;;;;;;;5032444;28;20052;-57
2022/04/18 05:24:34;;;;;;;3.45;2.00;;;;;;;;;;5032534;28;20049;-57
2022/04/18 05:27:20;;;;;;;3.38;2.00;;;;;;;;;;5031677;28;20069;-57
2022/04/18 05:30:06;;;;;;;2.58;1.30;;;;;;;;;;5031763;28;20066;-57
2022/04/18 05:32:51;;;;;;;2.67;1.42;;;;;;;;;;5050725;28;20048;-57
2022/04/18 05:35:36;;;;;;;2.95;1.73;;;;;;;;;;5051577;28;20049;-58
2022/04/18 05:38:21;;;;;;;2.15;1.23;;;;;;;;;;5037787;28;20037;-58
2022/04/18 05:41:13;;;;;;;2.92;1.58;;;;;;;;;;5037490;28;20445;-57
2022/04/18 05:43:59;;;;;;;2.45;1.55;;;;;;;;;;5051453;28;20048;-57
2022/04/18 05:46:51;;;;;;;5.13;2.50;;;;;;;;;;5051502;28;20098;-58
2022/04/18 05:49:36;;;;;;;2.08;1.10;;;;;;;;;;5037349;28;20052;-57
2022/04/18 05:52:22;;;;;;;2.85;1.88;;;;;;;;;;5051066;28;20044;-57
2022/04/18 05:55:18;;;;;;;2.72;1.70;;;;;;;;;;5051322;28;20099;-58
2022/04/18 05:58:04;;;;;;;2.60;1.58;;;;;;;;;;5051097;28;20052;-58
2022/04/18 06:00:49;;;;;;;3.85;2.25;;;;;;;;;;5052254;28;20120;-57
2022/04/18 06:03:33;;;;;;;3.53;2.60;;;;;;;;;;5051075;28;20400;-55
2022/04/18 06:06:19;;;;;;;5.25;3.15;;;;;;;;;;5065286;28;20100;-56
2022/04/18 06:09:04;;;;;;;7.90;3.22;;;;;;;;;;5051151;28;20041;-56
2022/04/18 06:11:49;;;;;;;6.65;3.38;;;;;;;;;;5052232;28;20049;-57
2022/04/18 06:14:36;;;;;;;6.60;3.83;;;;;;;;;;5050873;28;20404;-56
2022/04/18 06:17:23;;;;;;;6.25;3.67;;;;;;;;;;5037035;28;20075;-57
2022/04/18 06:20:12;;;;;;;3.47;2.10;;;;;;;;;;5050854;28;20484;-56
2022/04/18 06:22:56;;;;;;;7.60;3.65;;;;;;;;;;5052287;28;20126;-57
2022/04/18 06:25:41;;;;;;;6.18;3.22;;;;;;;;;;5050316;28;20044;-57
2022/04/18 06:28:26;;;;;;;2.95;1.55;;;;;;;;;;5051169;28;20075;-57
2022/04/18 06:31:10;;;;;;;4.97;3.42;;;;;;;;;;5051773;28;20041;-57
2022/04/18 06:34:14;;;;;;;3.30;1.92;;;;;;;;;;5050943;28;20625;-58
2022/04/18 06:36:59;;;;;;;5.68;3.35;;;;;;;;;;5051247;28;20044;-57
2022/04/18 06:40:03;;;;;;;5.07;3.05;;;;;;;;;;5050767;28;20053;-58
2022/04/18 06:43:06;;;;;;;2.28;1.50;;;;;;;;;;5065081;28;20110;-57
2022/04/18 06:45:50;;;;;;;1.98;1.52;;;;;;;;;;5052015;28;20041;-57
2022/04/18 06:48:36;;;;;;;5.90;3.65;;;;;;;;;;5051314;28;20048;-58
2022/04/18 06:51:52;;;;;;;4.07;2.88;;;;;;;;;;5041797;28;20083;-58
2022/04/18 06:54:55;;;;;;;6.72;3.70;;;;;;;;;;5050589;28;20056;-58
2022/04/18 06:57:40;;;;;;;3.70;3.13;;;;;;;;;;5051157;28;20045;-58
2022/04/18 07:00:30;;;;;;;3.65;3.00;;;;;;;;;;5050473;28;20041;-58
2022/04/18 07:03:15;;;;;;;6.07;3.78;;;;;;;;;;5036429;28;20045;-58
2022/04/18 07:06:00;;;;;;;7.05;3.58;;;;;;;;;;5050374;28;20048;-58
2022/04/18 07:08:47;;;;;;;6.25;3.67;;;;;;;;;;5039068;28;20056;-58
2022/04/18 07:11:51;;;;;;;5.07;3.85;;;;;;;;;;5051497;28;20056;-57
2022/04/18 07:14:38;;;;;;;6.05;3.50;;;;;;;;;;5050297;28;20048;-57
2022/04/18 07:17:25;;;;;;;2.72;1.85;;;;;;;;;;5052424;28;20094;-58
2022/04/18 07:20:11;;;;;;;5.03;3.10;;;;;;;;;;5040169;28;20051;-58
2022/04/18 07:22:57;;;;;;;5.57;3.17;;;;;;;;;;5054137;28;20040;-57
2022/04/18 07:25:47;;;;;;;0.90;0.77;;;;;;;;;;5040784;28;20242;-57
2022/04/18 07:28:53;;;;;;;2.20;1.35;;;;;;;;;;5053439;28;20174;-58
2022/04/18 07:31:38;;;;;;;5.47;3.38;;;;;;;;;;5067652;28;20037;-58
2022/04/18 07:34:23;;;;;;;4.40;2.40;;;;;;;;;;5055068;28;20045;-58
2022/04/18 07:37:09;;;;;;;7.68;3.80;;;;;;;;;;5067945;28;20040;-57
2022/04/18 07:39:53;;;;;;;4.43;3.75;;;;;;;;;;5040517;28;20045;-57
2022/04/18 07:42:38;;;;;;;3.53;1.65;;;;;;;;;;5053515;28;20124;-56
2022/04/18 07:45:23;;;;;;;5.35;3.47;;;;;;;;;;5039935;28;20053;-55
2022/04/18 07:48:08;;;;;;;2.42;1.42;;;;;;;;;;5053535;28;20394;-56
2022/04/18 07:53:59;;;;;;;4.05;2.22;;;;;;;;;;5041932;28;20073;-58
2022/04/18 07:56:45;;;;;;;4.80;2.90;;;;;;;;;;5033444;28;20391;-57
2022/04/18 07:59:31;;;;;;;4.00;1.98;;;;;;;;;;5047391;28;20041;-57
2022/04/18 08:02:18;;;;;;;7.07;2.75;;;;;;;;;;5033363;28;20484;-55
2022/04/18 08:05:29;;;;;;;5.72;2.80;;;;;;;;;;5034242;28;20045;-59
2022/04/18 08:08:22;;;;;;;4.03;2.35;;;;;;;;;;5020447;28;20049;-57
2022/04/18 08:11:17;;;;;;;4.28;2.30;;;;;;;;;;5033313;28;20037;-57
2022/04/18 08:14:05;;;;;;;4.57;2.50;;;;;;;;;;5020026;28;20046;-58
2022/04/18 08:17:11;;;;;;;5.43;3.00;;;;;;;;;;5034341;28;20051;-58
2022/04/18 08:20:00;;;;;;;3.50;2.10;;;;;;;;;;5033081;28;20386;-59
2022/04/18 08:22:46;;;;;;;2.83;1.85;;;;;;;;;;5032658;28;20493;-57
2022/04/18 08:25:54;;;;;;;4.00;2.22;;;;;;;;;;5039626;28;20107;-58
2022/04/18 08:28:51;;;;;;;4.95;2.17;;;;;;;;;;5032898;28;20120;-57
2022/04/18 08:31:38;;;;;;;5.03;2.80;;;;;;;;;;5027249;28;20033;-57
2022/04/18 08:34:27;;;;;;;3.78;1.90;;;;;;;;;;5053909;28;20045;-57
2022/04/18 08:37:13;;;;;;;4.03;2.55;;;;;;;;;;5052467;28;20237;-57
2022/04/18 08:40:29;;;;;;;2.53;1.08;;;;;;;;;;5053528;28;20044;-58
2022/04/18 08:43:16;;;;;;;4.95;1.77;;;;;;;;;;5052400;28;20041;-57
2022/04/18 08:46:05;;;;;;;4.55;1.83;;;;;;;;;;5052386;28;20044;-57
2022/04/18 08:55:01;;;;;;;3.85;1.60;;;;;;;;;;5052220;28;20064;-57
2022/04/18 08:57:46;;;;;;;5.60;2.35;;;;;;;;;;5051912;28;20041;-57
2022/04/18 09:00:32;;;;;;;4.07;1.80;;;;;;;;;;5051887;28;20049;-57
2022/04/18 09:03:34;;;;;;;4.47;1.83;;;;;;;;;;5051544;28;20120;-57
2022/04/18 09:06:22;;;;;;;2.13;1.60;;;;;;;;;;5051961;28;20045;-58
2022/04/18 09:09:27;;;;;;;3.95;2.10;;;;;;;;;;5037582;28;20037;-58
2022/04/18 09:12:18;;;;;;;2.22;1.63;;;;;;;;;;5065652;28;20067;-58
2022/04/18 09:15:09;;;;;;;4.85;1.90;;;;;;;;;;5038360;28;20037;-59
2022/04/18 09:18:27;;;;;;;4.20;1.65;;;;;;;;;;5037741;28;20563;-58
2022/04/18 09:21:28;;;;;;;3.38;2.10;;;;;;;;;;5051475;28;20053;-58
2022/04/18 09:24:32;;;;;;;1.02;0.82;;;;;;;;;;5051562;28;20053;-57
2022/04/18 09:27:31;;;;;;;4.20;2.08;;;;;;;;;;5040434;28;20037;-59
2022/04/18 09:30:31;;;;;;;2.72;1.83;;;;;;;;;;5039533;28;20041;-58
2022/04/18 09:33:17;;;;;;;3.08;2.00;;;;;;;;;;5037301;28;20049;-59
2022/04/18 09:36:19;;;;;;;3.42;1.88;;;;;;;;;;5038653;28;20377;-58
2022/04/18 09:39:06;;;;;;;3.47;1.88;;;;;;;;;;5065100;28;20485;-58
2022/04/18 09:42:14;;;;;;;3.10;2.00;;;;;;;;;;5051360;28;20079;-58
2022/04/18 09:45:34;;;;;;;3.53;2.20;;;;;;;;;;5049961;28;20128;-58
2022/04/18 09:48:21;;;;;;;4.75;2.28;;;;;;;;;;5051364;28;20049;-59
2022/04/18 09:51:11;;;;;;;5.32;1.60;;;;;;;;;;5051311;28;20044;-59
2022/04/18 09:54:18;;;;;;;2.45;1.55;;;;;;;;;;5051122;28;20041;-59
2022/04/18 09:57:08;;;;;;;6.88;1.77;;;;;;;;;;5052085;28;20541;-59
2022/04/18 09:59:54;;;;;;;3.60;1.25;;;;;;;;;;5051226;28;20048;-59
2022/04/18 10:02:39;;;;;;;4.45;2.58;;;;;;;;;;5052001;28;20131;-59
2022/04/18 10:05:25;;;;;;;2.33;1.45;;;;;;;;;;5051643;28;20399;-58
2022/04/18 10:08:09;;;;;;;1.83;1.10;;;;;;;;;;5052021;28;20091;-57
2022/04/18 10:10:55;;;;;;;1.40;0.98;;;;;;;;;;5052103;28;20037;-58
2022/04/18 10:13:39;;;;;;;3.75;1.90;;;;;;;;;;5051214;28;20057;-58
2022/04/18 10:16:26;;;;;;;3.17;1.90;;;;;;;;;;5052278;28;20052;-57
2022/04/18 10:19:22;;;;;;;2.17;1.67;;;;;;;;;;5050915;28;20045;-59
2022/04/18 10:22:12;;;;;;;4.00;1.90;;;;;;;;;;5051761;28;20041;-59
2022/04/18 10:25:16;;;;;;;4.28;1.98;;;;;;;;;;5051025;28;20045;-59
2022/04/18 10:28:06;;;;;;;3.67;1.60;;;;;;;;;;5050793;28;20045;-58
2022/04/18 10:31:01;;;;;;;1.95;1.10;;;;;;;;;;5050749;28;20047;-58
2022/04/18 10:33:46;;;;;;;3.47;1.98;;;;;;;;;;5050923;28;20102;-58
2022/04/18 10:36:32;;;;;;;2.45;1.40;;;;;;;;;;5051461;28;20477;-57
2022/04/18 10:39:17;;;;;;;2.70;1.38;;;;;;;;;;5051859;28;20041;-58
2022/04/18 10:42:19;;;;;;;2.80;2.10;;;;;;;;;;5050869;28;20120;-58
2022/04/18 10:45:14;;;;;;;3.33;1.42;;;;;;;;;;5052018;28;20049;-58
2022/04/18 10:48:01;;;;;;;2.33;1.20;;;;;;;;;;5051015;28;20053;-59
2022/04/18 10:50:47;;;;;;;3.33;1.58;;;;;;;;;;5050624;28;20072;-58
2022/04/18 10:53:36;;;;;;;2.83;1.77;;;;;;;;;;5055551;28;20103;-59
2022/04/18 10:56:21;;;;;;;2.63;1.40;;;;;;;;;;5055651;28;20049;-58
2022/04/18 10:59:06;;;;;;;2.63;1.88;;;;;;;;;;5054441;28;20044;-59
2022/04/18 11:01:51;;;;;;;3.38;1.63;;;;;;;;;;5055434;28;20063;-58
2022/04/18 11:04:39;;;;;;;1.92;0.68;;;;;;;;;;5054168;28;20127;-59
2022/04/18 11:07:36;;;;;;;4.40;1.85;;;;;;;;;;5055327;28;20072;-57
2022/04/18 11:10:22;;;;;;;2.90;1.92;;;;;;;;;;5055233;28;20044;-58
2022/04/18 11:13:11;;;;;;;3.00;1.67;;;;;;;;;;5055357;28;20496;-59
2022/04/18 11:16:22;;;;;;;4.43;1.77;;;;;;;;;;5055034;28;20075;-59
2022/04/18 11:19:16;;;;;;;3.55;1.50;;;;;;;;;;5049689;28;20052;-58
2022/04/18 11:22:01;;;;;;;4.00;1.95;;;;;;;;;;5039959;28;20045;-59
2022/04/18 11:24:49;;;;;;;2.53;1.30;;;;;;;;;;5055028;28;20147;-58
2022/04/18 11:27:34;;;;;;;2.97;1.50;;;;;;;;;;5054947;28;20098;-58
2022/04/18 11:30:19;;;;;;;3.65;1.30;;;;;;;;;;5053886;28;20037;-59
2022/04/18 11:33:05;;;;;;;2.15;1.13;;;;;;;;;;5053821;28;20061;-58
2022/04/18 11:35:50;;;;;;;3.50;1.50;;;;;;;;;;5053636;28;20049;-59
2022/04/18 11:38:35;;;;;;;2.33;1.20;;;;;;;;;;5054693;28;20120;-59
2022/04/18 11:41:21;;;;;;;2.47;1.35;;;;;;;;;;5054552;28;20052;-59
2022/04/18 11:44:05;;;;;;;3.85;1.70;;;;;;;;;;5054762;28;20090;-58
2022/04/18 11:46:50;;;;;;;2.10;1.52;;;;;;;;;;5052434;28;20049;-58
2022/04/18 11:49:35;;;;;;;2.58;1.50;;;;;;;;;;5052355;28;20460;-57
2022/04/18 11:52:21;;;;;;;2.22;1.20;;;;;;;;;;5053693;28;20041;-58
2022/04/18 11:55:11;;;;;;;3.60;1.17;;;;;;;;;;5053570;28;20650;-59
2022/04/18 11:57:56;;;;;;;3.47;1.40;;;;;;;;;;5054333;28;20049;-58
2022/04/18 12:06:52;;;;;;;4.25;1.60;;;;;;;;;;5053169;28;20132;-59
2022/04/18 12:09:39;;;;;;;2.88;1.50;;;;;;;;;;5053220;28;20048;-58
2022/04/18 12:12:31;;;;;;;0.95;0.68;;;;;;;;;;5053049;28;20048;-58
2022/04/18 12:15:15;;;;;;;3.03;1.50;;;;;;;;;;5054355;28;20049;-58
2022/04/18 12:18:16;;;;;;;2.10;1.40;;;;;;;;;;5054077;28;20061;-59
2022/04/18 12:21:01;;;;;;;2.58;1.23;;;;;;;;;;5052909;28;20040;-58
2022/04/18 12:23:51;;;;;;;2.33;1.20;;;;;;;;;;5053066;28;20052;-58
2022/04/18 12:26:38;;;;;;;3.03;1.00;;;;;;;;;;5052773;28;20037;-60
2022/04/18 12:29:23;;;;;;;1.55;0.88;;;;;;;;;;5053150;28;20121;-58
2022/04/18 12:32:22;;;;;;;1.65;0.63;;;;;;;;;;5053538;28;20044;-58
2022/04/18 12:35:07;;;;;;;1.50;0.60;;;;;;;;;;5053632;28;20041;-57
2022/04/18 12:37:52;;;;;;;2.80;0.90;;;;;;;;;;5038523;28;20087;-58
2022/04/18 12:40:39;;;;;;;1.60;0.77;;;;;;;;;;5052564;28;20112;-59
2022/04/18 12:43:28;;;;;;;1.60;1.00;;;;;;;;;;5052381;28;20045;-58
2022/04/18 12:46:14;;;;;;;2.03;1.10;;;;;;;;;;5053395;28;20049;-58
2022/04/18 12:49:17;;;;;;;1.88;1.17;;;;;;;;;;5053394;28;20048;-58
2022/04/18 12:52:05;;;;;;;2.00;1.10;;;;;;;;;;5053235;28;20102;-58
2022/04/18 12:54:50;;;;;;;1.58;1.00;;;;;;;;;;5053418;28;20083;-58
2022/04/18 12:57:34;;;;;;;2.08;1.30;;;;;;;;;;5053245;28;20166;-58
2022/04/18 13:00:19;;;;;;;2.97;1.35;;;;;;;;;;5053104;28;20041;-58
2022/04/18 13:03:05;;;;;;;3.80;2.08;;;;;;;;;;5052013;28;20041;-58
2022/04/18 13:05:51;;;;;;;2.67;1.30;;;;;;;;;;5052651;28;20052;-59
2022/04/18 13:08:37;;;;;;;2.53;1.27;;;;;;;;;;5052043;28;20054;-59
2022/04/18 13:11:22;;;;;;;2.42;1.30;;;;;;;;;;5052996;28;20037;-59
2022/04/18 13:14:07;;;;;;;3.53;1.38;;;;;;;;;;5050782;28;20411;-58
2022/04/18 13:17:03;;;;;;;2.08;1.02;;;;;;;;;;5051607;28;20060;-59
2022/04/18 13:19:48;;;;;;;2.08;1.10;;;;;;;;;;5037680;28;20353;-59
2022/04/18 13:22:34;;;;;;;3.08;1.33;;;;;;;;;;5051606;28;20095;-59
2022/04/18 13:25:19;;;;;;;0.88;0.70;;;;;;;;;;5051859;28;20376;-59
2022/04/18 13:28:06;;;;;;;3.42;0.90;;;;;;;;;;5052710;28;20052;-58
2022/04/18 13:30:51;;;;;;;1.83;0.70;;;;;;;;;;5052495;28;20040;-58
2022/04/18 13:33:36;;;;;;;2.25;1.10;;;;;;;;;;5037492;28;20432;-57
2022/04/18 13:36:37;;;;;;;1.92;0.73;;;;;;;;;;5052733;28;20045;-58
2022/04/18 13:39:22;;;;;;;2.30;1.27;;;;;;;;;;5051391;28;20079;-58
2022/04/18 13:42:07;;;;;;;2.13;1.48;;;;;;;;;;5052234;28;20049;-60
2022/04/18 13:44:52;;;;;;;1.63;0.88;;;;;;;;;;5050971;28;20045;-59
2022/04/18 13:47:38;;;;;;;2.42;1.20;;;;;;;;;;5052610;28;20127;-58
2022/04/18 13:50:23;;;;;;;1.98;1.08;;;;;;;;;;5051690;28;20056;-58
2022/04/18 13:53:07;;;;;;;2.88;0.93;;;;;;;;;;5052399;28;20416;-57
2022/04/18 13:55:52;;;;;;;2.47;0.90;;;;;;;;;;5052204;28;20442;-58
2022/04/18 13:58:38;;;;;;;2.00;0.82;;;;;;;;;;5052356;28;20052;-58
2022/04/18 14:01:22;;;;;;;1.77;1.15;;;;;;;;;;5052168;28;20045;-59
2022/04/18 14:04:07;;;;;;;1.73;0.95;;;;;;;;;;5052124;28;20120;-57
2022/04/18 14:06:52;;;;;;;2.08;1.25;;;;;;;;;;5052055;28;20041;-58
2022/04/18 14:09:36;;;;;;;1.65;1.00;;;;;;;;;;5051098;28;20476;-57
2022/04/18 14:12:21;;;;;;;2.58;1.23;;;;;;;;;;5050961;28;20087;-59
2022/04/18 14:21:12;;;;;;;1.77;1.10;;;;;;;;;;5051956;28;20049;-58
2022/04/18 14:23:56;;;;;;;2.28;1.10;;;;;;;;;;5050694;28;20053;-59
2022/04/18 14:26:41;;;;;;;1.70;1.15;;;;;;;;;;5056208;28;20037;-58
2022/04/18 14:29:26;;;;;;;2.45;1.15;;;;;;;;;;5058612;28;20041;-59
2022/04/18 14:32:10;;;;;;;4.45;2.20;;;;;;;;;;5057449;28;20041;-58
2022/04/18 14:34:56;;;;;;;2.90;1.30;;;;;;;;;;5057376;28;20049;-57
2022/04/18 14:37:43;;;;;;;3.50;1.27;;;;;;;;;;5058215;28;20045;-59
2022/04/18 14:40:29;;;;;;;1.52;1.30;;;;;;;;;;5056252;28;20404;-58
2022/04/18 14:43:14;;;;;;;2.38;1.23;;;;;;;;;;5032951;28;20057;-54
2022/04/18 14:45:59;;;;;;;2.13;1.08;;;;;;;;;;5042359;28;20534;-51
2022/04/18 14:48:43;;;;;;;2.45;1.30;;;;;;;;;;5057552;28;20106;-49
2022/04/18 14:51:28;;;;;;;2.75;1.58;;;;;;;;;;5056496;28;20125;-53
2022/04/18 14:54:13;;;;;;;2.08;1.13;;;;;;;;;;5056639;28;20036;-46
2022/04/18 14:56:57;;;;;;;1.90;0.98;;;;;;;;;;5056326;28;20053;-46
2022/04/18 14:59:42;;;;;;;2.45;1.27;;;;;;;;;;5057558;28;20037;-49
2022/04/18 15:02:27;;;;;;;1.58;1.10;;;;;;;;;;5057502;28;20040;-50
2022/04/18 15:05:11;;;;;;;2.38;1.40;;;;;;;;;;5056331;28;20396;-52
2022/04/18 15:07:56;;;;;;;2.38;1.55;;;;;;;;;;5054438;28;20059;-53
2022/04/18 15:10:40;;;;;;;2.55;1.20;;;;;;;;;;5048196;28;20472;-58
2022/04/18 15:13:25;;;;;;;2.67;1.33;;;;;;;;;;5053297;28;20044;-54
2022/04/18 15:16:11;;;;;;;3.65;1.40;;;;;;;;;;5056944;28;20045;-50
2022/04/18 15:18:56;;;;;;;2.13;1.40;;;;;;;;;;5038063;28;20054;-55
2022/04/18 15:21:41;;;;;;;2.55;1.65;;;;;;;;;;5037768;28;20041;-57
2022/04/18 15:24:26;;;;;;;3.50;1.50;;;;;;;;;;5037791;28;20049;-54
2022/04/18 15:27:11;;;;;;;4.05;1.45;;;;;;;;;;5036826;28;20103;-57
2022/04/18 15:32:58;;;;;;;3.53;1.50;;;;;;;;;;5052973;28;20120;-53
2022/04/18 15:35:43;;;;;;;4.13;1.65;;;;;;;;;;5069418;28;20053;-55
2022/04/18 15:38:27;;;;;;;11.10;2.80;;;;;;;;;;5054137;28;20136;-57
2022/04/18 15:41:12;;;;;;;4.60;1.75;;;;;;;;;;5054183;28;20060;-56
2022/04/18 15:43:59;;;;;;;5.78;1.58;;;;;;;;;;5052920;28;20065;-57
2022/04/18 15:46:44;;;;;;;2.00;1.42;;;;;;;;;;5050351;28;20087;-56
2022/04/18 15:49:29;;;;;;;3.80;1.60;;;;;;;;;;5052455;28;20041;-57
2022/04/18 15:52:14;;;;;;;4.82;2.17;;;;;;;;;;5053136;28;20107;-56
2022/04/18 15:54:58;;;;;;;3.15;1.45;;;;;;;;;;5052154;28;20124;-55
2022/04/18 15:57:43;;;;;;;2.15;1.50;;;;;;;;;;5053556;28;20484;-57
2022/04/18 16:00:27;;;;;;;3.03;1.80;;;;;;;;;;5051615;28;20057;-56
2022/04/18 16:03:12;;;;;;;4.03;1.73;;;;;;;;;;5053492;28;20040;-56
2022/04/18 16:05:57;;;;;;;3.15;1.58;;;;;;;;;;5051442;28;20040;-54
2022/04/18 16:08:42;;;;;;;3.40;1.58;;;;;;;;;;5052401;28;20041;-55
2022/04/18 16:11:26;;;;;;;3.45;1.80;;;;;;;;;;5053097;28;20349;-56
2022/04/18 16:14:11;;;;;;;2.50;1.52;;;;;;;;;;5051538;28;20384;-57
2022/04/18 16:17:00;;;;;;;2.40;1.70;;;;;;;;;;5051113;28;20041;-59
2022/04/18 16:19:45;;;;;;;3.70;1.50;;;;;;;;;;5050553;28;20040;-57
2022/04/18 16:22:29;;;;;;;2.35;1.45;;;;;;;;;;5050744;28;20037;-58
2022/04/18 16:25:14;;;;;;;3.47;1.75;;;;;;;;;;5052726;28;20092;-57
2022/04/18 16:27:59;;;;;;;4.15;1.55;;;;;;;;;;5037174;28;20053;-57
2022/04/18 16:33:48;;;;;;;4.82;1.60;;;;;;;;;;5051314;28;20480;-57
2022/04/18 16:36:33;;;;;;;2.88;1.40;;;;;;;;;;5052021;28;20041;-57
2022/04/18 16:39:18;;;;;;;3.92;1.40;;;;;;;;;;5053202;28;20171;-51
2022/04/18 16:48:09;;;;;;;1.88;1.27;;;;;;;;;;5053159;28;20049;-52
2022/04/18 16:50:54;;;;;;;2.00;1.23;;;;;;;;;;5052976;28;20045;-53
2022/04/18 16:53:39;;;;;;;4.72;1.98;;;;;;;;;;5053515;28;20412;-52
2022/04/18 16:56:23;;;;;;;3.72;1.45;;;;;;;;;;5051531;28;20055;-54
2022/04/18 16:59:08;;;;;;;3.42;1.52;;;;;;;;;;5052531;28;20515;-57
2022/04/18 17:01:53;;;;;;;3.53;1.58;;;;;;;;;;5051448;28;20048;-49
2022/04/18 17:04:38;;;;;;;3.25;1.70;;;;;;;;;;5052062;28;20091;-53
2022/04/18 17:07:23;;;;;;;3.03;1.50;;;;;;;;;;5050495;28;20615;-52
2022/04/18 17:10:08;;;;;;;3.38;1.40;;;;;;;;;;5032857;28;20045;-54
2022/04/18 17:12:52;;;;;;;3.38;1.50;;;;;;;;;;5033185;28;20112;-54
2022/04/18 17:15:37;;;;;;;5.43;1.60;;;;;;;;;;5033303;28;20099;-53
2022/04/18 17:18:22;;;;;;;3.03;1.33;;;;;;;;;;5043814;28;20049;-50
2022/04/18 17:21:06;;;;;;;2.67;1.70;;;;;;;;;;5045136;28;20049;-53
2022/04/18 17:23:51;;;;;;;3.97;1.63;;;;;;;;;;5043236;28;20052;-51
2022/04/18 17:26:36;;;;;;;2.75;1.48;;;;;;;;;;5043566;28;20038;-54